To NAV CANADA Home Page Login to a new session Search on AWWS site Feedback and Comments Disclaimer Vers la page française équivalente Tips FAQ What's new on the site To the Forecasts and Observations / NOTAM section To "File a Flight Plan" website Publications and other links Update of the User's profile FIC Telephone Numbers My Weather Data Folder Route Weather Data Regional Weather Data Local Weather Data To the Forecasts and Observations / NOTAM section
Request Generated 06/26/2017 at 22:33:31 UTC . Weather information available at that time is displayed.

METAR/TAF

LA RONGE (BARBER FIELD)/SK    

METAR CYVC 262200Z 19009G16KT 170V230 15SM BKN250 24/03 A2986 RMK CI5
SLP119 DENSITY ALT 2700FT=
METAR CYVC 262100Z 17012KT 150V220 15SM SCT250 24/03 A2988 RMK CI3
SLP127 DENSITY ALT 2700FT=
METAR CYVC 262000Z 18014KT 15SM SCT250 24/03 A2991 RMK CI4 SLP136
DENSITY ALT 2600FT=

TAF CYVC 261838Z 2619/2707 17012G22KT P6SM SCT250
FM262100 19012KT P6SM BKN250
FM270400 15006KT P6SM BKN120
RMK NXT FCST BY 270100Z=
Your time UTC time
Weather data provided by Environment Canada and NAV CANADA